Time;durP1;ratioP1;P1;durP2;ratioP2;P2;SDS_P1;SDS_P2;PMS_P1;PMS_P2;Temp;Humidity;BMP_temperature;BMP_pressure;BME280_temperature;BME280_humidity;BME280_pressure;Samples;Min_cycle;Max_cycle;Signal;HPM_P1;HPM_P2
2021/12/18 00:01:26;;;;;;;;;;;9.40;99.90;;;;;;7346167;19;110975;-78
2021/12/18 00:03:53;;;;;;;;;;;9.50;99.90;;;;;;7344168;19;112197;-78
2021/12/18 00:06:21;;;;;;;;;;;9.50;99.90;;;;;;7345413;19;109389;-78
2021/12/18 00:08:48;;;;;;;;;;;9.50;99.90;;;;;;7344605;19;110118;-79
2021/12/18 00:11:15;;;;;;;;;;;9.50;99.90;;;;;;7345273;19;111801;-79
2021/12/18 00:13:42;;;;;;;;;;;9.50;99.90;;;;;;7343576;19;110942;-78
2021/12/18 00:16:09;;;;;;;;;;;9.60;99.90;;;;;;7344705;19;110989;-78
2021/12/18 00:18:36;;;;;;;;;;;9.50;99.90;;;;;;7345101;19;112779;-77
2021/12/18 00:21:04;;;;;;;;;;;9.50;99.90;;;;;;7350566;19;109798;-77
2021/12/18 00:23:31;;;;;;;;;;;9.50;99.90;;;;;;7344276;19;111735;-79
2021/12/18 00:25:57;;;;;;;;;;;9.60;99.90;;;;;;7343512;19;109597;-78
2021/12/18 00:28:24;;;;;;;;;;;9.60;99.90;;;;;;7346044;19;111126;-79
2021/12/18 00:30:51;;;;;;;;;;;9.60;99.90;;;;;;7342939;19;111870;-78
2021/12/18 00:33:18;;;;;;;;;;;9.60;99.90;;;;;;7342600;19;109357;-78
2021/12/18 00:35:45;;;;;;;;;;;9.70;99.90;;;;;;7342075;19;110952;-78
2021/12/18 00:38:12;;;;;;;;;;;9.70;99.90;;;;;;7343634;19;111914;-78
2021/12/18 00:40:46;;;;;;;;;;;9.70;99.90;;;;;;7345470;19;109647;-77
2021/12/18 00:43:31;;;;;;;;;;;9.70;99.90;;;;;;7352565;19;110657;-77
2021/12/18 00:45:58;;;;;;;;;;;9.60;99.90;;;;;;7351329;19;109218;-79
2021/12/18 00:48:25;;;;;;;;;;;9.60;99.90;;;;;;7350700;19;111678;-78
2021/12/18 00:50:53;;;;;;;;;;;9.50;99.90;;;;;;7349827;19;111767;-79
2021/12/18 00:53:20;;;;;;;;;;;9.40;99.90;;;;;;7351624;19;109486;-77
2021/12/18 00:55:48;;;;;;;;;;;9.30;99.90;;;;;;7349484;19;111092;-78
2021/12/18 00:58:15;;;;;;;;;;;9.40;99.90;;;;;;7350353;19;111947;-79
2021/12/18 01:00:43;;;;;;;;;;;9.40;99.90;;;;;;7351554;19;109252;-78
2021/12/18 01:03:17;;;;;;;;;;;9.30;99.90;;;;;;7356870;19;110594;-78
2021/12/18 01:05:45;;;;;;;;;;;9.30;99.90;;;;;;7350217;19;109139;-78
2021/12/18 01:08:12;;;;;;;;;;;9.30;99.90;;;;;;7350722;19;110515;-80
2021/12/18 01:13:14;;;;;;;;;;;9.30;99.90;;;;;;7352454;19;109394;-79
2021/12/18 01:15:47;;;;;;;;;;;9.30;99.90;;;;;;7348560;19;110709;-78
2021/12/18 01:23:45;;;;;;;;;;;9.40;99.90;;;;;;7350162;19;110665;-80
2021/12/18 01:26:13;;;;;;;;;;;9.40;99.90;;;;;;7356050;19;111681;-80
2021/12/18 01:28:40;;;;;;;;;;;9.40;99.90;;;;;;7349958;19;110933;-79
2021/12/18 01:31:08;;;;;;;;;;;9.30;99.90;;;;;;7350435;19;112061;-79
2021/12/18 01:33:36;;;;;;;;;;;9.30;99.90;;;;;;7350225;19;109381;-79
2021/12/18 01:36:03;;;;;;;;;;;9.30;99.90;;;;;;7350128;19;110688;-78
2021/12/18 01:38:31;;;;;;;;;;;9.30;99.90;;;;;;7348322;19;112295;-78
2021/12/18 01:40:59;;;;;;;;;;;9.40;99.90;;;;;;7349836;19;109764;-78
2021/12/18 01:46:29;;;;;;;;;;;9.30;99.90;;;;;;7348885;19;111972;-78
2021/12/18 01:51:59;;;;;;;;;;;9.30;99.90;;;;;;7349327;19;112096;-78
2021/12/18 01:54:26;;;;;;;;;;;9.30;99.90;;;;;;7346218;19;109196;-78
2021/12/18 01:56:53;;;;;;;;;;;9.30;99.90;;;;;;7349924;19;110605;-78
2021/12/18 01:59:36;;;;;;;;;;;9.30;99.90;;;;;;7348710;19;111720;-79
2021/12/18 02:02:03;;;;;;;;;;;9.30;99.90;;;;;;7349692;19;109330;-78
2021/12/18 02:04:30;;;;;;;;;;;9.40;99.90;;;;;;7350213;19;112112;-78
2021/12/18 02:06:58;;;;;;;;;;;9.40;99.90;;;;;;7348741;19;111842;-77
2021/12/18 02:09:32;;;;;;;;;;;9.50;99.90;;;;;;7350032;19;109339;-77
2021/12/18 02:12:00;;;;;;;;;;;9.50;99.90;;;;;;7353766;19;110747;-78
2021/12/18 02:19:32;;;;;;;;;;;9.50;99.90;;;;;;7349110;19;109797;-77
2021/12/18 02:20:52;;;;;;;;;;;9.50;99.90;;;;;;7348288;19;111667;-77
2021/12/18 02:23:00;;;;;;;;;;;9.60;99.90;;;;;;7348713;19;110020;-78
2021/12/18 02:25:30;;;;;;;;;;;9.70;99.90;;;;;;7347590;19;111220;-79
2021/12/18 02:27:57;;;;;;;;;;;9.70;99.90;;;;;;7347755;19;112691;-79
2021/12/18 02:30:24;;;;;;;;;;;9.70;99.90;;;;;;7348720;19;109252;-79
2021/12/18 02:32:52;;;;;;;;;;;9.70;99.90;;;;;;7349173;19;110561;-78
2021/12/18 02:35:30;;;;;;;;;;;9.60;99.90;;;;;;7350574;19;111985;-78
2021/12/18 02:38:10;;;;;;;;;;;9.40;99.90;;;;;;7348012;19;111201;-77
2021/12/18 02:43:23;;;;;;;;;;;9.40;99.90;;;;;;7348352;19;109273;-78
2021/12/18 02:45:53;;;;;;;;;;;9.40;99.90;;;;;;7347600;19;110548;-77
2021/12/18 02:48:20;;;;;;;;;;;9.60;99.90;;;;;;7346541;19;112607;-77
2021/12/18 02:50:47;;;;;;;;;;;9.60;99.90;;;;;;7348429;19;109941;-77
2021/12/18 02:53:14;;;;;;;;;;;9.60;99.90;;;;;;7348276;19;110958;-77
2021/12/18 02:55:41;;;;;;;;;;;9.70;99.90;;;;;;7345297;19;112089;-78
2021/12/18 02:58:08;;;;;;;;;;;9.70;99.90;;;;;;7353660;19;109762;-77
2021/12/18 03:00:35;;;;;;;;;;;9.70;99.90;;;;;;7347105;19;111991;-78
2021/12/18 03:03:08;;;;;;;;;;;9.60;99.90;;;;;;7347667;19;109348;-77
2021/12/18 03:05:43;;;;;;;;;;;9.50;99.90;;;;;;7348762;19;111156;-77
2021/12/18 03:08:17;;;;;;;;;;;9.50;99.90;;;;;;7346977;19;111872;-77
2021/12/18 03:19:47;;;;;;;;;;;9.30;99.90;;;;;;7353865;19;109412;-77
2021/12/18 03:24:43;;;;;;;;;;;9.40;99.90;;;;;;7346526;19;109971;-77
2021/12/18 03:27:10;;;;;;;;;;;9.50;99.90;;;;;;7346051;19;110791;-77
2021/12/18 03:29:36;;;;;;;;;;;9.60;99.90;;;;;;7345816;19;111977;-77
2021/12/18 03:32:03;;;;;;;;;;;9.70;99.90;;;;;;7348461;19;109278;-77
2021/12/18 03:34:30;;;;;;;;;;;9.70;99.90;;;;;;7344909;19;110503;-79
2021/12/18 03:36:57;;;;;;;;;;;9.70;99.90;;;;;;7346900;19;111673;-79
2021/12/18 03:39:24;;;;;;;;;;;9.70;99.90;;;;;;7346432;19;109413;-77
2021/12/18 03:41:51;;;;;;;;;;;9.70;99.90;;;;;;7352159;19;110908;-77
2021/12/18 03:44:18;;;;;;;;;;;9.70;99.90;;;;;;7345735;19;109618;-77
2021/12/18 03:46:45;;;;;;;;;;;9.70;99.90;;;;;;7344537;19;111004;-77
2021/12/18 03:49:12;;;;;;;;;;;9.70;99.90;;;;;;7344002;19;111929;-77
2021/12/18 03:51:42;;;;;;;;;;;9.60;99.90;;;;;;7340909;19;120349;-77
2021/12/18 03:54:09;;;;;;;;;;;9.40;99.90;;;;;;7347163;19;111615;-77
2021/12/18 03:56:36;;;;;;;;;;;9.30;99.90;;;;;;7342404;19;111782;-77
2021/12/18 03:59:03;;;;;;;;;;;9.30;99.90;;;;;;7346579;19;109354;-77
2021/12/18 04:01:30;;;;;;;;;;;9.40;99.90;;;;;;7344951;19;110588;-77
2021/12/18 04:03:57;;;;;;;;;;;9.50;99.90;;;;;;7349374;19;111865;-78
2021/12/18 04:06:25;;;;;;;;;;;9.50;99.90;;;;;;7346425;19;110494;-77
2021/12/18 04:08:52;;;;;;;;;;;9.60;99.90;;;;;;7345775;19;112511;-79
2021/12/18 04:11:19;;;;;;;;;;;9.60;99.90;;;;;;7347119;19;109325;-77
2021/12/18 04:13:47;;;;;;;;;;;9.70;99.90;;;;;;7345075;19;110711;-77
2021/12/18 04:16:14;;;;;;;;;;;9.70;99.90;;;;;;7343498;19;111674;-77
2021/12/18 04:18:41;;;;;;;;;;;9.60;99.90;;;;;;7350011;19;109583;-78
2021/12/18 04:21:08;;;;;;;;;;;9.70;99.90;;;;;;7353433;19;111104;-77
2021/12/18 04:23:35;;;;;;;;;;;9.60;99.90;;;;;;7352040;19;112070;-79
2021/12/18 04:26:02;;;;;;;;;;;9.40;99.90;;;;;;7358647;19;109357;-77
2021/12/18 04:28:28;;;;;;;;;;;9.30;99.90;;;;;;7351874;19;111729;-77
2021/12/18 04:30:56;;;;;;;;;;;9.30;99.90;;;;;;7350238;19;109782;-77
2021/12/18 04:33:22;;;;;;;;;;;9.20;99.90;;;;;;7352618;19;110675;-77
2021/12/18 04:35:49;;;;;;;;;;;9.20;99.90;;;;;;7350489;19;111939;-77
2021/12/18 04:38:16;;;;;;;;;;;9.20;99.90;;;;;;7352180;19;109375;-77
2021/12/18 04:40:44;;;;;;;;;;;9.20;99.90;;;;;;7352152;19;110990;-77
2021/12/18 04:43:10;;;;;;;;;;;9.20;99.90;;;;;;7351486;19;112372;-77
2021/12/18 04:45:37;;;;;;;;;;;9.20;99.90;;;;;;7349216;19;109576;-77
2021/12/18 04:48:04;;;;;;;;;;;9.20;99.90;;;;;;7354142;19;110675;-77
2021/12/18 04:50:31;;;;;;;;;;;9.20;99.90;;;;;;7351769;19;109362;-77
2021/12/18 04:52:58;;;;;;;;;;;9.10;99.90;;;;;;7351362;19;110819;-77
2021/12/18 04:55:25;;;;;;;;;;;9.10;99.90;;;;;;7351107;19;112141;-77
2021/12/18 04:57:54;;;;;;;;;;;9.10;99.90;;;;;;7350823;19;109434;-78
2021/12/18 05:00:27;;;;;;;;;;;9.10;99.90;;;;;;7351537;19;111004;-78
2021/12/18 05:02:54;;;;;;;;;;;9.00;99.90;;;;;;7350644;19;111700;-78
2021/12/18 05:05:21;;;;;;;;;;;9.00;99.90;;;;;;7352385;19;109656;-79
2021/12/18 05:07:48;;;;;;;;;;;8.90;99.90;;;;;;7351739;19;111166;-78
2021/12/18 05:10:15;;;;;;;;;;;9.00;99.90;;;;;;7355969;19;111915;-78
2021/12/18 05:12:42;;;;;;;;;;;9.20;99.90;;;;;;7351350;19;110766;-79
2021/12/18 05:15:09;;;;;;;;;;;9.30;99.90;;;;;;7349181;19;111695;-80
2021/12/18 05:17:36;;;;;;;;;;;9.30;99.90;;;;;;7352119;19;109532;-80
2021/12/18 05:20:04;;;;;;;;;;;9.30;99.90;;;;;;7349766;19;110660;-79
2021/12/18 05:22:30;;;;;;;;;;;9.20;99.90;;;;;;7351284;19;112180;-78
2021/12/18 05:24:57;;;;;;;;;;;9.10;99.90;;;;;;7348780;19;109383;-78
2021/12/18 05:27:24;;;;;;;;;;;9.10;99.90;;;;;;7348985;19;111106;-80
2021/12/18 05:29:51;;;;;;;;;;;9.00;99.90;;;;;;7353238;19;112102;-80
2021/12/18 05:32:18;;;;;;;;;;;9.00;99.90;;;;;;7349725;19;110564;-79
2021/12/18 05:34:45;;;;;;;;;;;8.90;99.90;;;;;;7349579;19;112049;-79
2021/12/18 05:37:20;;;;;;;;;;;8.80;99.90;;;;;;7350528;19;109317;-79
2021/12/18 05:39:47;;;;;;;;;;;8.80;99.90;;;;;;7348928;19;110702;-78
2021/12/18 05:42:14;;;;;;;;;;;8.80;99.90;;;;;;7348872;19;111692;-78
2021/12/18 05:44:41;;;;;;;;;;;8.90;99.90;;;;;;7351410;19;109577;-78
2021/12/18 05:47:08;;;;;;;;;;;9.00;99.90;;;;;;7348386;19;110671;-78
2021/12/18 05:49:35;;;;;;;;;;;9.00;99.90;;;;;;7350579;19;111723;-78
2021/12/18 05:52:02;;;;;;;;;;;9.10;99.90;;;;;;7354689;19;109366;-78
2021/12/18 05:54:34;;;;;;;;;;;9.10;99.90;;;;;;7349025;19;111708;-78
2021/12/18 05:57:05;;;;;;;;;;;9.20;99.90;;;;;;7347829;19;109709;-79
2021/12/18 05:59:32;;;;;;;;;;;9.20;99.90;;;;;;7349927;19;110600;-78
2021/12/18 06:01:59;;;;;;;;;;;9.30;99.90;;;;;;7349115;19;111741;-78
2021/12/18 06:04:26;;;;;;;;;;;9.20;99.90;;;;;;7349417;19;109748;-80
2021/12/18 06:06:53;;;;;;;;;;;9.30;99.90;;;;;;7349273;19;110785;-80
2021/12/18 06:09:19;;;;;;;;;;;9.30;99.90;;;;;;7349080;19;111891;-79
2021/12/18 06:11:46;;;;;;;;;;;9.30;99.90;;;;;;7349571;19;109560;-78
2021/12/18 06:14:13;;;;;;;;;;;9.30;99.90;;;;;;7354915;19;110875;-78
2021/12/18 06:16:40;;;;;;;;;;;9.30;99.90;;;;;;7347589;19;109455;-78
2021/12/18 06:19:07;;;;;;;;;;;9.30;99.90;;;;;;7350302;19;111007;-78
2021/12/18 06:21:34;;;;;;;;;;;9.20;99.90;;;;;;7348073;19;111739;-78
2021/12/18 06:24:00;;;;;;;;;;;9.10;99.90;;;;;;7349139;19;109413;-78
2021/12/18 06:26:27;;;;;;;;;;;9.10;99.90;;;;;;7349127;19;111224;-78
2021/12/18 06:28:55;;;;;;;;;;;9.20;99.90;;;;;;7349512;19;112022;-78
2021/12/18 06:31:29;;;;;;;;;;;9.20;99.90;;;;;;7347533;19;109646;-78
2021/12/18 06:33:56;;;;;;;;;;;9.20;99.90;;;;;;7348423;19;111100;-78
2021/12/18 06:36:24;;;;;;;;;;;9.10;99.90;;;;;;7351008;19;111960;-78
2021/12/18 06:38:51;;;;;;;;;;;9.00;99.90;;;;;;7346770;19;110309;-78
2021/12/18 06:41:18;;;;;;;;;;;9.00;99.90;;;;;;7347490;19;111820;-78
2021/12/18 06:43:44;;;;;;;;;;;9.00;99.90;;;;;;7348319;19;109391;-78
2021/12/18 06:46:11;;;;;;;;;;;9.00;99.90;;;;;;7346899;19;110691;-78
2021/12/18 06:48:38;;;;;;;;;;;9.00;99.90;;;;;;7347001;19;111722;-80
2021/12/18 06:51:05;;;;;;;;;;;9.10;99.90;;;;;;7345441;19;109969;-80
2021/12/18 06:53:32;;;;;;;;;;;9.10;99.90;;;;;;7348797;19;110652;-78
2021/12/18 06:55:59;;;;;;;;;;;9.10;99.90;;;;;;7343879;19;112149;-79
2021/12/18 06:58:25;;;;;;;;;;;9.00;99.90;;;;;;7353763;19;109331;-78
2021/12/18 07:00:53;;;;;;;;;;;8.90;99.90;;;;;;7345607;19;111902;-79
2021/12/18 07:03:20;;;;;;;;;;;8.90;99.90;;;;;;7348236;19;109291;-78
2021/12/18 07:05:48;;;;;;;;;;;8.80;99.90;;;;;;7346496;19;110874;-78
2021/12/18 07:08:15;;;;;;;;;;;8.80;99.90;;;;;;7345030;19;111772;-78
2021/12/18 07:10:42;;;;;;;;;;;8.80;99.90;;;;;;7346882;19;109484;-79
2021/12/18 07:13:09;;;;;;;;;;;8.90;99.90;;;;;;7346077;19;110721;-79
2021/12/18 07:15:37;;;;;;;;;;;9.00;99.90;;;;;;7344595;19;111768;-78
2021/12/18 07:18:04;;;;;;;;;;;8.90;99.90;;;;;;7346138;19;109378;-78
2021/12/18 07:20:32;;;;;;;;;;;8.90;99.90;;;;;;7351433;19;110940;-77
2021/12/18 07:22:59;;;;;;;;;;;8.90;99.90;;;;;;7346208;19;109518;-79
2021/12/18 07:25:27;;;;;;;;;;;8.90;99.90;;;;;;7343968;19;111072;-78
2021/12/18 07:27:55;;;;;;;;;;;8.90;99.90;;;;;;7345253;19;112192;-78
2021/12/18 07:30:22;;;;;;;;;;;8.80;99.90;;;;;;7345880;19;109318;-78
2021/12/18 07:32:49;;;;;;;;;;;8.70;99.90;;;;;;7347535;19;111033;-78
2021/12/18 07:35:16;;;;;;;;;;;8.70;99.90;;;;;;7342447;19;111754;-78
2021/12/18 07:37:42;;;;;;;;;;;8.70;99.90;;;;;;7342698;19;109423;-78
2021/12/18 07:40:10;;;;;;;;;;;8.70;99.90;;;;;;7350458;19;110636;-78
2021/12/18 07:42:37;;;;;;;;;;;8.70;99.90;;;;;;7346627;19;109318;-77
2021/12/18 07:45:04;;;;;;;;;;;8.60;99.90;;;;;;7345330;19;110626;-78
2021/12/18 07:47:32;;;;;;;;;;;8.70;99.90;;;;;;7344535;19;111707;-78
2021/12/18 07:49:59;;;;;;;;;;;8.80;99.90;;;;;;7346007;19;109464;-78
2021/12/18 07:52:25;;;;;;;;;;;8.90;99.90;;;;;;7338986;19;111515;-78
2021/12/18 07:54:52;;;;;;;;;;;9.00;99.90;;;;;;7345313;19;111841;-78
2021/12/18 07:57:19;;;;;;;;;;;9.10;99.90;;;;;;7343604;19;109535;-78
2021/12/18 07:59:46;;;;;;;;;;;9.10;99.90;;;;;;7346361;19;111055;-78
2021/12/18 08:02:13;;;;;;;;;;;9.10;99.90;;;;;;7346241;19;111710;-78
2021/12/18 08:04:39;;;;;;;;;;;9.10;99.90;;;;;;7343341;19;110673;-79
2021/12/18 08:07:06;;;;;;;;;;;9.20;99.90;;;;;;7345224;19;112009;-78
2021/12/18 08:09:33;;;;;;;;;;;9.20;99.90;;;;;;7345154;19;109918;-77
2021/12/18 08:12:00;;;;;;;;;;;9.20;99.90;;;;;;7345563;19;110618;-78
2021/12/18 08:14:27;;;;;;;;;;;9.20;99.90;;;;;;7344826;19;112787;-78
2021/12/18 08:16:54;;;;;;;;;;;9.20;99.90;;;;;;7344026;19;109253;-78
2021/12/18 08:19:21;;;;;;;;;;;9.30;99.90;;;;;;7342795;19;110754;-78
2021/12/18 08:21:48;;;;;;;;;;;9.40;99.90;;;;;;7344705;19;112122;-78
2021/12/18 08:24:14;;;;;;;;;;;9.30;99.90;;;;;;7348849;19;109981;-78
2021/12/18 08:26:41;;;;;;;;;;;9.30;99.90;;;;;;7344911;19;111863;-78
2021/12/18 08:29:08;;;;;;;;;;;9.30;99.90;;;;;;7342966;19;109950;-78
2021/12/18 08:31:35;;;;;;;;;;;9.30;99.90;;;;;;7344597;19;110934;-77
2021/12/18 08:34:02;;;;;;;;;;;9.30;99.90;;;;;;7343737;19;112108;-78
2021/12/18 08:36:29;;;;;;;;;;;9.30;99.90;;;;;;7344105;19;109439;-77
2021/12/18 08:38:56;;;;;;;;;;;9.40;99.90;;;;;;7344300;19;110711;-78
2021/12/18 08:41:23;;;;;;;;;;;9.40;99.90;;;;;;7343220;19;111404;-78
2021/12/18 08:43:50;;;;;;;;;;;9.40;99.90;;;;;;7343116;19;109384;-78
2021/12/18 08:46:17;;;;;;;;;;;9.40;99.90;;;;;;7347630;19;111407;-79
2021/12/18 08:48:44;;;;;;;;;;;9.40;99.90;;;;;;7346139;19;110162;-78
2021/12/18 08:51:11;;;;;;;;;;;9.40;99.90;;;;;;7344040;19;110644;-79
2021/12/18 08:53:38;;;;;;;;;;;9.40;99.90;;;;;;7342599;19;111387;-79
2021/12/18 08:56:04;;;;;;;;;;;9.40;99.90;;;;;;7343941;19;109319;-78
2021/12/18 08:58:31;;;;;;;;;;;9.40;99.90;;;;;;7342912;19;111169;-78
2021/12/18 09:00:58;;;;;;;;;;;9.30;99.90;;;;;;7341911;19;113304;-78
2021/12/18 09:03:25;;;;;;;;;;;9.30;99.90;;;;;;7343539;19;109362;-77
2021/12/18 09:05:54;;;;;;;;;;;9.30;99.90;;;;;;7349899;19;110803;-79
2021/12/18 09:08:21;;;;;;;;;;;9.30;99.90;;;;;;7354948;19;111737;-79
2021/12/18 09:10:48;;;;;;;;;;;9.30;99.90;;;;;;7351868;19;110461;-79
2021/12/18 09:13:15;;;;;;;;;;;9.30;99.90;;;;;;7350172;19;112750;-79
2021/12/18 09:15:42;;;;;;;;;;;9.30;99.90;;;;;;7351289;19;109345;-79
2021/12/18 09:18:09;;;;;;;;;;;9.30;99.90;;;;;;7349231;19;110659;-78
2021/12/18 09:20:36;;;;;;;;;;;9.30;99.90;;;;;;7349602;19;111810;-80
2021/12/18 09:23:02;;;;;;;;;;;9.30;99.90;;;;;;7347552;19;109843;-80
2021/12/18 09:25:29;;;;;;;;;;;9.30;99.90;;;;;;7347363;19;111758;-79
2021/12/18 09:27:56;;;;;;;;;;;9.30;99.90;;;;;;7348369;19;112190;-79
2021/12/18 09:30:23;;;;;;;;;;;9.30;99.90;;;;;;7354011;19;109929;-79
2021/12/18 09:32:50;;;;;;;;;;;9.30;99.90;;;;;;7350117;19;112783;-79
2021/12/18 09:35:18;;;;;;;;;;;9.30;99.90;;;;;;7349918;19;109662;-80
2021/12/18 09:37:45;;;;;;;;;;;9.30;99.90;;;;;;7348799;19;110455;-80
2021/12/18 09:40:12;;;;;;;;;;;9.40;99.90;;;;;;7348706;19;111655;-78
2021/12/18 09:42:39;;;;;;;;;;;9.30;99.90;;;;;;7349579;19;109306;-80
2021/12/18 09:45:06;;;;;;;;;;;9.40;99.90;;;;;;7350505;19;111761;-79
2021/12/18 09:47:33;;;;;;;;;;;9.40;99.90;;;;;;7347402;19;111805;-79
2021/12/18 09:50:00;;;;;;;;;;;9.40;99.90;;;;;;7356044;19;109744;-78
2021/12/18 09:52:29;;;;;;;;;;;9.40;99.90;;;;;;7349155;19;111905;-79
2021/12/18 09:54:56;;;;;;;;;;;9.40;99.90;;;;;;7350163;19;109349;-79
2021/12/18 09:57:24;;;;;;;;;;;9.40;99.90;;;;;;7347779;19;110503;-78
2021/12/18 09:59:50;;;;;;;;;;;9.40;99.90;;;;;;7347283;19;111690;-78
2021/12/18 10:02:18;;;;;;;;;;;9.40;99.90;;;;;;7347364;19;109346;-79
2021/12/18 10:04:45;;;;;;;;;;;9.40;99.90;;;;;;7348729;19;110970;-79
2021/12/18 10:07:17;;;;;;;;;;;9.40;99.90;;;;;;7348597;19;112061;-78
2021/12/18 10:09:44;;;;;;;;;;;9.40;99.90;;;;;;7349522;19;109291;-79
2021/12/18 10:12:21;;;;;;;;;;;9.40;99.90;;;;;;7353348;19;111112;-78
2021/12/18 10:14:56;;;;;;;;;;;9.40;99.90;;;;;;7347645;19;109264;-78
2021/12/18 10:17:30;;;;;;;;;;;9.50;99.90;;;;;;7348540;19;111133;-78
2021/12/18 10:20:09;;;;;;;;;;;9.50;99.90;;;;;;7348803;19;112035;-78
2021/12/18 10:22:56;;;;;;;;;;;9.50;99.90;;;;;;7349196;19;109383;-78
2021/12/18 10:25:24;;;;;;;;;;;9.60;99.90;;;;;;7348168;19;110705;-78
2021/12/18 10:28:08;;;;;;;;;;;9.60;99.90;;;;;;7346886;19;111879;-78
2021/12/18 10:30:34;;;;;;;;;;;9.60;99.90;;;;;;7350408;19;109200;-78
2021/12/18 10:33:01;;;;;;;;;;;9.60;99.90;;;;;;7349062;19;110601;-79
2021/12/18 10:35:55;;;;;;;;;;;9.60;99.90;;;;;;7353118;19;112155;-78
2021/12/18 10:38:34;;;;;;;;;;;9.60;99.90;;;;;;7345092;19;110670;-78
2021/12/18 10:41:01;;;;;;;;;;;9.60;99.90;;;;;;7343984;19;112455;-78
2021/12/18 10:43:48;;;;;;;;;;;9.60;99.90;;;;;;7347736;19;109764;-78
2021/12/18 10:46:18;;;;;;;;;;;9.70;99.90;;;;;;7344939;19;110938;-78
2021/12/18 10:48:55;;;;;;;;;;;9.70;99.90;;;;;;7343798;19;112283;-78
2021/12/18 10:51:23;;;;;;;;;;;9.70;99.90;;;;;;7346165;19;109416;-78
2021/12/18 10:53:50;;;;;;;;;;;9.70;99.90;;;;;;7344966;19;110562;-78
2021/12/18 10:56:30;;;;;;;;;;;9.70;99.90;;;;;;7345650;19;111796;-80
2021/12/18 10:58:56;;;;;;;;;;;9.70;99.90;;;;;;7346667;19;109419;-79
2021/12/18 11:01:23;;;;;;;;;;;9.70;99.90;;;;;;7348414;19;111839;-79
2021/12/18 11:03:51;;;;;;;;;;;9.70;99.90;;;;;;7343752;19;109965;-78
2021/12/18 11:06:22;;;;;;;;;;;9.70;99.90;;;;;;7346773;19;110800;-80
2021/12/18 11:08:51;;;;;;;;;;;9.80;99.90;;;;;;7338837;19;111901;-79
2021/12/18 11:14:13;;;;;;;;;;;9.70;99.90;;;;;;7339033;19;110959;-78
2021/12/18 11:16:41;;;;;;;;;;;9.80;99.90;;;;;;7339142;19;112078;-79
2021/12/18 11:19:13;;;;;;;;;;;9.80;99.90;;;;;;7340875;19;109357;-78
2021/12/18 11:21:47;;;;;;;;;;;9.80;99.90;;;;;;7343301;19;111032;-79
2021/12/18 11:24:15;;;;;;;;;;;9.70;99.90;;;;;;7339937;19;109201;-78
2021/12/18 11:27:00;;;;;;;;;;;9.80;99.90;;;;;;7336297;19;111076;-79
2021/12/18 11:29:31;;;;;;;;;;;9.70;99.90;;;;;;7338869;19;111707;-79
2021/12/18 11:31:58;;;;;;;;;;;9.70;99.90;;;;;;7339786;19;109745;-78
2021/12/18 11:34:25;;;;;;;;;;;9.70;99.90;;;;;;7338762;19;110994;-79
2021/12/18 11:36:53;;;;;;;;;;;9.70;99.90;;;;;;7340249;19;111891;-80
2021/12/18 11:39:22;;;;;;;;;;;9.80;99.90;;;;;;7337086;19;109408;-79
2021/12/18 11:41:50;;;;;;;;;;;9.80;99.90;;;;;;7342588;19;110614;-79
2021/12/18 11:44:30;;;;;;;;;;;9.80;99.90;;;;;;7338676;19;109305;-78
2021/12/18 11:46:58;;;;;;;;;;;9.90;99.90;;;;;;7337477;19;110656;-78
2021/12/18 11:49:40;;;;;;;;;;;9.90;99.90;;;;;;7338352;19;111731;-78
2021/12/18 11:52:07;;;;;;;;;;;9.90;99.90;;;;;;7337720;19;109918;-79
2021/12/18 11:54:51;;;;;;;;;;;9.90;99.90;;;;;;7333793;19;111784;-79
2021/12/18 11:57:36;;;;;;;;;;;9.90;99.90;;;;;;7335903;19;111650;-78
2021/12/18 12:00:23;;;;;;;;;;;9.90;99.90;;;;;;7340609;19;109828;-78
2021/12/18 12:02:52;;;;;;;;;;;9.80;99.90;;;;;;7336550;19;110977;-78
2021/12/18 12:05:30;;;;;;;;;;;9.60;99.90;;;;;;7344260;19;112211;-78
2021/12/18 12:08:25;;;;;;;;;;;9.50;99.90;;;;;;7337492;19;110685;-79
2021/12/18 12:11:16;;;;;;;;;;;9.60;99.90;;;;;;7336718;19;112150;-78
2021/12/18 12:14:01;;;;;;;;;;;9.60;99.90;;;;;;7338015;19;109946;-78
2021/12/18 12:16:43;;;;;;;;;;;9.60;99.90;;;;;;7336296;19;110917;-78
2021/12/18 12:19:13;;;;;;;;;;;9.60;99.90;;;;;;7334830;19;111617;-78
2021/12/18 12:21:45;;;;;;;;;;;9.50;99.90;;;;;;7338255;19;109913;-79
2021/12/18 12:24:13;;;;;;;;;;;9.50;99.90;;;;;;7334381;19;111405;-78
2021/12/18 12:26:41;;;;;;;;;;;9.50;99.90;;;;;;7337805;19;111695;-78
2021/12/18 12:29:08;;;;;;;;;;;9.40;99.90;;;;;;7340262;19;109438;-78
2021/12/18 12:31:36;;;;;;;;;;;9.30;99.90;;;;;;7337099;19;112139;-79
2021/12/18 12:34:21;;;;;;;;;;;9.30;99.90;;;;;;7333890;19;109858;-78
2021/12/18 12:36:49;;;;;;;;;;;9.30;99.90;;;;;;7339126;19;111439;-78
2021/12/18 12:39:16;;;;;;;;;;;9.30;99.90;;;;;;7338353;19;111762;-79
2021/12/18 12:41:50;;;;;;;;;;;9.30;99.90;;;;;;7341962;19;109802;-78
2021/12/18 12:44:26;;;;;;;;;;;9.30;99.90;;;;;;7341642;19;110678;-80
2021/12/18 12:47:11;;;;;;;;;;;9.30;99.90;;;;;;7344397;19;112595;-80
2021/12/18 12:49:38;;;;;;;;;;;9.30;99.90;;;;;;7343729;19;110260;-80
2021/12/18 12:52:08;;;;;;;;;;;9.20;99.90;;;;;;7348209;19;110698;-80
2021/12/18 12:54:37;;;;;;;;;;;9.20;99.90;;;;;;7343398;19;109280;-78
2021/12/18 12:57:22;;;;;;;;;;;9.20;99.90;;;;;;7344064;19;110992;-79
2021/12/18 12:59:52;;;;;;;;;;;9.20;99.90;;;;;;7343149;19;111708;-78
2021/12/18 13:02:20;;;;;;;;;;;9.20;99.90;;;;;;7343566;19;109366;-79
2021/12/18 13:04:48;;;;;;;;;;;9.20;99.90;;;;;;7344417;19;111375;-79
2021/12/18 13:07:15;;;;;;;;;;;9.30;99.90;;;;;;7343083;19;111757;-78
2021/12/18 13:09:46;;;;;;;;;;;9.30;99.90;;;;;;7343730;19;109319;-78
2021/12/18 13:12:13;;;;;;;;;;;9.10;99.90;;;;;;7344028;19;110634;-78
2021/12/18 13:14:41;;;;;;;;;;;9.10;99.90;;;;;;7347971;19;112307;-78
2021/12/18 13:17:17;;;;;;;;;;;9.10;99.90;;;;;;7344480;19;111786;-78
2021/12/18 13:20:00;;;;;;;;;;;9.20;99.90;;;;;;7339993;19;111380;-78
2021/12/18 13:22:32;;;;;;;;;;;9.30;99.90;;;;;;7344116;19;109400;-77
2021/12/18 13:25:12;;;;;;;;;;;9.40;99.90;;;;;;7337048;19;110362;-79
2021/12/18 13:27:40;;;;;;;;;;;9.30;99.90;;;;;;7340454;19;111678;-79
2021/12/18 13:30:11;;;;;;;;;;;9.30;99.90;;;;;;7340868;19;109310;-79
2021/12/18 13:32:53;;;;;;;;;;;9.30;99.90;;;;;;7343598;19;111285;-78
2021/12/18 13:35:21;;;;;;;;;;;9.30;99.90;;;;;;7341923;19;111665;-79
2021/12/18 13:37:55;;;;;;;;;;;9.30;99.90;;;;;;7347023;19;110295;-78
2021/12/18 13:40:23;;;;;;;;;;;9.20;99.90;;;;;;7343114;19;112818;-78
2021/12/18 13:43:10;;;;;;;;;;;9.10;99.90;;;;;;7341802;19;109285;-78
2021/12/18 13:45:49;;;;;;;;;;;9.10;99.90;;;;;;7341780;19;109326;-79
2021/12/18 13:48:16;;;;;;;;;;;9.10;99.90;;;;;;7341468;19;112159;-78
2021/12/18 13:50:50;;;;;;;;;;;9.10;99.90;;;;;;7338991;19;109399;-78
2021/12/18 13:53:17;;;;;;;;;;;9.10;99.90;;;;;;7340859;19;109769;-79
2021/12/18 13:55:51;;;;;;;;;;;9.10;99.90;;;;;;7340037;19;111717;-79
2021/12/18 13:58:29;;;;;;;;;;;9.10;99.90;;;;;;7347850;19;109840;-78
2021/12/18 14:00:58;;;;;;;;;;;9.00;99.90;;;;;;7342230;19;111712;-78
2021/12/18 14:03:27;;;;;;;;;;;9.10;99.90;;;;;;7343612;19;110483;-78
2021/12/18 14:05:55;;;;;;;;;;;9.10;99.90;;;;;;7341676;19;110679;-79
2021/12/18 14:08:23;;;;;;;;;;;9.10;99.90;;;;;;7341710;19;111732;-78
2021/12/18 14:10:50;;;;;;;;;;;9.20;99.90;;;;;;7340765;19;110015;-77
2021/12/18 14:13:17;;;;;;;;;;;9.20;99.90;;;;;;7340301;19;111785;-78
2021/12/18 14:15:44;;;;;;;;;;;9.20;99.90;;;;;;7340967;19;111586;-78
2021/12/18 14:18:48;;;;;;;;;;;9.30;99.90;;;;;;7340054;19;109390;-78
2021/12/18 14:21:16;;;;;;;;;;;9.20;99.90;;;;;;7342557;19;111228;-79
2021/12/18 14:23:44;;;;;;;;;;;9.20;99.90;;;;;;7338031;19;111708;-79
2021/12/18 14:26:22;;;;;;;;;;;9.10;99.90;;;;;;7338511;19;110793;-78
2021/12/18 14:28:50;;;;;;;;;;;8.90;99.90;;;;;;7339657;19;112102;-78
2021/12/18 14:31:25;;;;;;;;;;;8.80;99.90;;;;;;7340602;19;110459;-80
2021/12/18 14:33:52;;;;;;;;;;;8.80;99.90;;;;;;7340055;19;109880;-79
2021/12/18 14:36:40;;;;;;;;;;;8.80;99.90;;;;;;7341326;19;112907;-78
2021/12/18 14:39:08;;;;;;;;;;;8.80;99.90;;;;;;7339797;19;109321;-78
2021/12/18 14:41:36;;;;;;;;;;;8.80;99.90;;;;;;7338659;19;110590;-78
2021/12/18 14:44:05;;;;;;;;;;;8.80;99.90;;;;;;7344237;19;112136;-79
2021/12/18 14:46:34;;;;;;;;;;;8.80;99.90;;;;;;7335763;19;110730;-79
2021/12/18 14:49:08;;;;;;;;;;;8.80;99.90;;;;;;7338236;19;112102;-80
2021/12/18 14:51:37;;;;;;;;;;;8.80;99.90;;;;;;7341267;19;110113;-78
2021/12/18 14:54:04;;;;;;;;;;;8.80;99.90;;;;;;7339739;19;111089;-79
2021/12/18 14:56:32;;;;;;;;;;;8.90;99.90;;;;;;7338143;19;111679;-78
2021/12/18 14:58:59;;;;;;;;;;;9.00;99.90;;;;;;7339752;19;109420;-79
2021/12/18 15:01:26;;;;;;;;;;;8.90;99.90;;;;;;7338695;19;110594;-79
2021/12/18 15:03:54;;;;;;;;;;;8.90;99.90;;;;;;7338945;19;112824;-79